Time;durP1;ratioP1;P1;durP2;ratioP2;P2;SDS_P1;SDS_P2;PMS_P1;PMS_P2;Temp;Humidity;BMP_temperature;BMP_pressure;BME280_temperature;BME280_humidity;BME280_pressure;Samples;Min_cycle;Max_cycle;Signal;HPM_P1;HPM_P2
2022/06/21 00:02:21;;;;;;;17.47;7.57;;;;;;;36.94;46.13;101221.97;5031913;28;20415;-72
2022/06/21 00:04:48;;;;;;;14.83;6.53;;;;;;;36.79;46.34;101217.53;5032118;28;20430;-72
2022/06/21 00:07:26;;;;;;;17.37;7.00;;;;;;;36.65;46.46;101213.09;5033382;28;20404;-72
2022/06/21 00:09:53;;;;;;;15.97;8.00;;;;;;;36.52;46.66;101220.84;5048341;28;20479;-72
2022/06/21 00:12:20;;;;;;;14.50;7.47;;;;;;;36.45;46.93;101216.84;5031640;28;20477;-72
2022/06/21 00:14:47;;;;;;;11.73;7.63;;;;;;;36.55;47.42;101216.75;5031962;28;20442;-72
2022/06/21 00:17:16;;;;;;;14.93;8.40;;;;;;;36.69;46.56;101216.84;5031588;28;20502;-71
2022/06/21 00:19:43;;;;;;;15.40;5.97;;;;;;;36.72;46.59;101205.47;5047822;28;20509;-72
2022/06/21 00:22:18;;;;;;;19.70;7.20;;;;;;;36.73;46.95;101201.66;5031532;28;20814;-71
2022/06/21 00:24:45;;;;;;;21.27;10.37;;;;;;;36.67;46.55;101198.22;5048070;28;20415;-70
2022/06/21 00:27:14;;;;;;;17.03;7.77;;;;;;;36.68;46.98;101210.63;5031493;28;20924;-72
2022/06/21 00:29:40;;;;;;;18.73;7.80;;;;;;;36.59;46.52;101215.88;5031486;28;20463;-72
2022/06/21 00:32:10;;;;;;;13.50;6.70;;;;;;;36.66;46.49;101222.84;5031475;28;20439;-72
2022/06/21 00:34:37;;;;;;;12.70;6.03;;;;;;;36.77;46.70;101224.31;5032969;28;20403;-72
2022/06/21 00:37:03;;;;;;;14.93;5.83;;;;;;;36.74;46.65;101211.38;5031472;28;20451;-72
2022/06/21 00:39:29;;;;;;;16.93;9.20;;;;;;;36.38;47.31;101216.38;5031221;28;20846;-70
2022/06/21 00:42:01;;;;;;;19.73;8.20;;;;;;;36.45;47.18;101211.44;5031328;28;20412;-70
2022/06/21 00:44:33;;;;;;;19.83;10.27;;;;;;;36.48;47.26;101209.00;5032812;28;20465;-70
2022/06/21 00:47:16;;;;;;;10.07;5.73;;;;;;;36.30;47.59;101201.59;5031236;28;20435;-70
2022/06/21 00:49:58;;;;;;;18.80;7.03;;;;;;;36.46;46.75;101207.66;5031327;28;20905;-72
2022/06/21 00:52:53;;;;;;;31.97;8.40;;;;;;;36.25;47.51;101194.34;5031149;28;20446;-73
2022/06/21 00:55:51;;;;;;;12.83;6.00;;;;;;;36.16;47.74;101204.19;5031331;28;20531;-72
2022/06/21 00:58:21;;;;;;;12.80;5.70;;;;;;;36.21;47.36;101198.69;5028924;28;20448;-72
2022/06/21 01:00:50;;;;;;;14.27;6.97;;;;;;;36.27;47.27;101202.94;5031143;28;20470;-72
2022/06/21 01:03:21;;;;;;;14.00;9.23;;;;;;;36.31;47.01;101200.50;5031021;28;20430;-72
2022/06/21 01:05:48;;;;;;;21.40;8.10;;;;;;;36.30;46.92;101194.28;5031044;28;20461;-72
2022/06/21 01:08:19;;;;;;;19.60;8.27;;;;;;;36.33;46.81;101198.31;5031007;28;20424;-72
2022/06/21 01:10:50;;;;;;;15.53;6.80;;;;;;;36.34;47.05;101202.63;5032465;28;20443;-72
2022/06/21 01:13:22;;;;;;;15.97;6.73;;;;;;;36.23;47.27;101204.63;5032569;28;20392;-72
2022/06/21 01:15:50;;;;;;;11.40;7.00;;;;;;;36.20;47.81;101217.91;5031026;28;20411;-70
2022/06/21 01:18:21;;;;;;;14.10;7.43;;;;;;;36.09;47.58;101202.88;5030831;28;20451;-70
2022/06/21 01:20:51;;;;;;;16.53;7.20;;;;;;;36.15;47.62;101194.44;5047388;28;21007;-72
2022/06/21 01:23:33;;;;;;;10.77;6.90;;;;;;;36.03;48.07;101192.16;5030877;28;20936;-72
2022/06/21 01:26:14;;;;;;;11.27;6.87;;;;;;;36.21;47.81;101179.00;5030842;28;20450;-72
2022/06/21 01:28:40;;;;;;;16.53;6.63;;;;;;;35.99;47.64;101171.41;5030471;28;20426;-72
2022/06/21 01:31:07;;;;;;;16.17;7.63;;;;;;;36.21;47.14;101165.47;5031437;28;20434;-72
2022/06/21 01:33:36;;;;;;;17.40;7.10;;;;;;;36.01;48.22;101159.22;5034470;28;20529;-70
2022/06/21 01:36:09;;;;;;;18.73;7.27;;;;;;;36.00;47.88;101157.59;5034568;28;20420;-72
2022/06/21 01:38:47;;;;;;;18.73;7.33;;;;;;;36.16;47.91;101154.75;5034856;28;20427;-72
2022/06/21 01:41:32;;;;;;;20.50;8.53;;;;;;;36.22;47.57;101149.00;5018932;28;20449;-72
2022/06/21 01:44:04;;;;;;;23.57;8.67;;;;;;;36.27;47.49;101151.63;5034754;28;20428;-72
2022/06/21 01:46:32;;;;;;;18.20;7.63;;;;;;;36.15;47.56;101145.81;5034410;28;20496;-72
2022/06/21 01:49:08;;;;;;;18.73;8.67;;;;;;;36.03;48.04;101140.84;5035675;28;20830;-72
2022/06/21 01:52:02;;;;;;;16.00;9.07;;;;;;;36.15;48.29;101145.81;5034335;28;20415;-72
2022/06/21 01:54:35;;;;;;;14.60;7.40;;;;;;;36.00;48.05;101154.91;5012674;28;20427;-72
2022/06/21 01:57:01;;;;;;;21.47;8.90;;;;;;;35.96;48.34;101148.47;5034200;28;20451;-72
2022/06/21 01:59:37;;;;;;;24.60;8.17;;;;;;;35.79;48.65;101142.69;5034322;28;20438;-73
2022/06/21 02:02:12;;;;;;;22.37;8.60;;;;;;;35.66;48.67;101137.91;5034145;28;20465;-72
2022/06/21 02:04:50;;;;;;;18.40;8.10;;;;;;;35.73;48.79;101149.22;5034108;28;20419;-73
2022/06/21 02:07:19;;;;;;;12.37;6.80;;;;;;;35.76;48.67;101148.63;5035611;28;20410;-72
2022/06/21 02:10:01;;;;;;;16.47;8.47;;;;;;;35.91;48.60;101151.22;5033928;28;20459;-72
2022/06/21 02:12:29;;;;;;;18.23;7.43;;;;;;;36.15;47.80;101153.94;5034002;28;20420;-72
2022/06/21 02:14:57;;;;;;;12.70;7.47;;;;;;;36.25;47.56;101144.91;5034253;28;20415;-72
2022/06/21 02:17:27;;;;;;;21.97;8.70;;;;;;;36.31;47.27;101143.78;5033758;28;20419;-72
2022/06/21 02:20:13;;;;;;;18.50;8.50;;;;;;;36.23;47.59;101145.22;5033604;28;20470;-73
2022/06/21 02:22:40;;;;;;;17.00;7.70;;;;;;;36.15;47.74;101142.31;5035602;28;20817;-72
2022/06/21 02:25:09;;;;;;;12.27;6.23;;;;;;;36.06;47.82;101139.47;5035409;28;20402;-72
2022/06/21 02:27:36;;;;;;;15.60;7.13;;;;;;;36.16;47.61;101131.25;5033583;28;20482;-72
2022/06/21 02:30:11;;;;;;;20.07;7.50;;;;;;;36.13;47.91;101133.72;5035289;28;20435;-70
2022/06/21 02:32:41;;;;;;;15.77;6.80;;;;;;;36.17;48.02;101137.47;5050230;28;20445;-72
2022/06/21 02:35:35;;;;;;;21.50;9.40;;;;;;;36.28;47.46;101137.06;5033591;28;20997;-72
2022/06/21 02:38:05;;;;;;;15.73;8.23;;;;;;;36.37;47.52;101149.91;5035032;28;20503;-72
2022/06/21 02:40:38;;;;;;;11.43;7.13;;;;;;;36.37;46.97;101153.44;5033448;28;20427;-72
2022/06/21 02:43:13;;;;;;;10.60;6.00;;;;;;;36.44;47.15;101158.50;5033155;28;20416;-71
2022/06/21 02:46:10;;;;;;;15.07;9.10;;;;;;;36.20;47.64;101158.47;5033112;28;20946;-72
2022/06/21 02:48:44;;;;;;;16.63;7.70;;;;;;;36.24;48.16;101154.94;5032602;28;20451;-72
2022/06/21 02:51:19;;;;;;;23.70;8.53;;;;;;;36.41;47.26;101153.69;5031324;28;20455;-71
2022/06/21 02:54:04;;;;;;;18.20;7.40;;;;;;;36.21;47.63;101141.97;5032720;28;20438;-73
2022/06/21 02:56:36;;;;;;;15.50;8.90;;;;;;;36.13;47.74;101134.53;5031292;28;20415;-72
2022/06/21 02:59:03;;;;;;;18.17;8.70;;;;;;;35.95;48.10;101135.25;5030992;28;20531;-72
2022/06/21 03:01:36;;;;;;;16.87;8.47;;;;;;;35.66;49.24;101148.72;5031077;28;20416;-72
2022/06/21 03:04:04;;;;;;;21.70;9.30;;;;;;;35.94;48.23;101149.84;5031017;28;20964;-73
2022/06/21 03:06:35;;;;;;;15.03;10.83;;;;;;;35.83;48.19;101142.91;5032992;28;20943;-72
2022/06/21 03:09:07;;;;;;;20.93;9.87;;;;;;;35.78;48.81;101149.16;5047406;28;20844;-72
2022/06/21 03:11:45;;;;;;;17.90;10.80;;;;;;;35.91;48.26;101156.63;5032564;28;20400;-72
2022/06/21 03:14:26;;;;;;;20.13;10.57;;;;;;;35.99;48.11;101144.41;5030902;28;20427;-72
2022/06/21 03:16:55;;;;;;;13.67;10.20;;;;;;;35.91;48.13;101148.53;5032210;28;20420;-72
2022/06/21 03:19:37;;;;;;;16.40;10.43;;;;;;;35.95;48.14;101133.34;5048376;28;20558;-72
2022/06/21 03:22:14;;;;;;;16.70;10.00;;;;;;;35.80;48.47;101139.69;5033713;28;20450;-72
2022/06/21 03:24:40;;;;;;;17.90;10.40;;;;;;;35.91;48.16;101140.44;5032649;28;20422;-71
2022/06/21 03:27:47;;;;;;;28.53;12.03;;;;;;;35.80;48.37;101137.00;5032627;28;20411;-72
2022/06/21 03:30:16;;;;;;;15.73;10.03;;;;;;;35.87;48.16;101141.25;5032366;28;20529;-72
2022/06/21 03:32:43;;;;;;;19.67;9.97;;;;;;;35.97;47.83;101136.59;5032401;28;20469;-72
2022/06/21 03:35:10;;;;;;;18.33;11.60;;;;;;;35.80;48.20;101131.59;5034042;28;20433;-73
2022/06/21 03:37:39;;;;;;;17.37;10.80;;;;;;;35.91;47.73;101132.34;5032284;28;20415;-73
2022/06/21 03:42:55;;;;;;;18.10;10.97;;;;;;;35.67;48.57;101128.75;5033761;28;20899;-73
2022/06/21 03:45:29;;;;;;;15.83;11.53;;;;;;;35.79;48.14;101126.50;5032216;28;20830;-72
2022/06/21 03:47:59;;;;;;;19.50;9.63;;;;;;;35.89;48.39;101128.25;5032070;28;20418;-72
2022/06/21 03:50:35;;;;;;;17.47;10.03;;;;;;;35.95;48.04;101130.66;5031979;28;20913;-72
2022/06/21 03:53:40;;;;;;;23.57;11.37;;;;;;;35.78;48.59;101130.25;5031833;28;20418;-73
2022/06/21 03:56:32;;;;;;;15.93;10.83;;;;;;;35.68;48.14;101141.16;5031620;28;20411;-72
2022/06/21 03:59:09;;;;;;;17.50;12.87;;;;;;;35.55;49.03;101155.31;5048479;28;20443;-73
2022/06/21 04:01:54;;;;;;;19.87;11.00;;;;;;;35.35;49.36;101162.41;5031964;28;20962;-72
2022/06/21 04:04:38;;;;;;;16.80;11.20;;;;;;;35.30;49.70;101153.56;5047454;28;20404;-72
2022/06/21 04:07:22;;;;;;;13.90;10.30;;;;;;;35.56;48.91;101138.03;5033477;28;20400;-72
2022/06/21 04:09:55;;;;;;;16.90;10.03;;;;;;;35.08;50.91;101140.50;5033480;28;20439;-72
2022/06/21 04:12:51;;;;;;;14.50;8.20;;;;;;;34.75;51.14;101137.44;5031917;28;20450;-72
2022/06/21 04:15:28;;;;;;;14.33;8.93;;;;;;;34.73;51.55;101145.78;5031655;28;20786;-72
2022/06/21 04:18:26;;;;;;;23.50;11.67;;;;;;;34.73;51.17;101139.59;5033369;28;20406;-70
2022/06/21 04:21:44;;;;;;;14.27;10.10;;;;;;;34.80;50.94;101147.38;5031483;28;20499;-70
2022/06/21 04:24:36;;;;;;;11.83;8.50;;;;;;;35.07;50.51;101155.88;4978766;28;20459;-70
2022/06/21 04:27:12;;;;;;;19.63;10.07;;;;;;;35.07;49.95;101145.09;5010885;28;20420;-70
2022/06/21 04:30:08;;;;;;;13.77;8.83;;;;;;;34.76;51.02;101149.81;5023731;28;20472;-71
2022/06/21 04:32:43;;;;;;;19.23;8.20;;;;;;;34.91;50.95;101155.13;5029350;28;20424;-70
2022/06/21 04:35:21;;;;;;;16.67;9.23;;;;;;;34.91;50.64;101151.63;5031401;28;20415;-70
2022/06/21 04:38:07;;;;;;;16.30;8.93;;;;;;;34.97;50.57;101151.34;5015852;28;20438;-71
2022/06/21 04:40:39;;;;;;;14.40;9.57;;;;;;;34.95;50.50;101148.13;5032920;28;20399;-72
2022/06/21 04:43:12;;;;;;;23.27;10.13;;;;;;;34.92;50.54;101148.66;5032893;28;20887;-72
2022/06/21 04:45:47;;;;;;;16.93;9.23;;;;;;;34.96;50.25;101138.97;5031323;28;20438;-70
2022/06/21 04:48:41;;;;;;;17.87;9.83;;;;;;;35.32;49.40;101144.13;5032918;28;20941;-72
2022/06/21 04:51:21;;;;;;;21.70;9.90;;;;;;;35.20;49.77;101149.06;5032621;28;20947;-72
2022/06/21 04:53:52;;;;;;;16.20;9.80;;;;;;;35.46;49.17;101153.19;5031279;28;20513;-72
2022/06/21 04:56:31;;;;;;;17.30;9.70;;;;;;;35.61;48.40;101144.19;5031063;28;20467;-70
2022/06/21 04:58:57;;;;;;;16.90;11.30;;;;;;;35.52;48.63;101143.97;5031188;28;20431;-72
2022/06/21 05:01:32;;;;;;;19.00;10.10;;;;;;;35.30;49.09;101148.16;5031212;28;20430;-72
2022/06/21 05:04:12;;;;;;;19.17;10.57;;;;;;;35.24;49.60;101155.50;5031118;28;20510;-71
2022/06/21 05:06:40;;;;;;;16.47;9.70;;;;;;;35.41;49.13;101139.72;5032189;28;20422;-70
2022/06/21 05:09:08;;;;;;;16.33;10.47;;;;;;;35.36;48.87;101137.09;5035061;28;20455;-71
2022/06/21 05:11:34;;;;;;;13.47;9.00;;;;;;;35.30;48.95;101121.19;5035052;28;20799;-72
2022/06/21 05:14:01;;;;;;;17.07;9.97;;;;;;;35.34;49.38;101114.16;5035096;28;20469;-72
2022/06/21 05:16:29;;;;;;;21.17;11.97;;;;;;;35.20;48.86;101105.91;5034988;28;20420;-72
2022/06/21 05:18:59;;;;;;;14.67;10.00;;;;;;;34.98;49.99;101114.41;5035000;28;20802;-72
2022/06/21 05:21:36;;;;;;;14.90;10.10;;;;;;;35.29;49.22;101120.38;5034861;28;20823;-72
2022/06/21 05:24:03;;;;;;;15.00;8.87;;;;;;;35.23;48.84;101127.72;5036541;28;20403;-72
2022/06/21 05:27:06;;;;;;;14.40;9.13;;;;;;;35.39;48.78;101119.50;5034752;28;20474;-73
2022/06/21 05:29:40;;;;;;;16.23;9.73;;;;;;;35.23;49.67;101126.91;5034650;28;20479;-72
2022/06/21 05:32:15;;;;;;;13.20;9.13;;;;;;;35.34;49.30;101135.72;5036248;28;20502;-70
2022/06/21 05:34:45;;;;;;;18.43;10.77;;;;;;;35.18;49.24;101148.53;5033888;28;20423;-69
2022/06/21 05:37:35;;;;;;;30.70;14.43;;;;;;;35.35;49.02;101140.84;5033500;28;20538;-71
2022/06/21 05:40:24;;;;;;;19.33;13.67;;;;;;;35.61;48.46;101138.78;5032874;28;20422;-72
2022/06/21 05:42:51;;;;;;;22.10;17.60;;;;;;;35.70;47.54;101128.97;5033262;28;20410;-70
2022/06/21 05:45:22;;;;;;;26.70;14.40;;;;;;;35.68;47.69;101127.66;5034500;28;20415;-70
2022/06/21 05:47:57;;;;;;;19.60;12.20;;;;;;;35.55;48.11;101123.75;5033423;28;20450;-70
2022/06/21 05:50:28;;;;;;;22.47;13.00;;;;;;;35.80;47.20;101118.09;5033291;28;20455;-72
2022/06/21 05:52:59;;;;;;;22.47;12.70;;;;;;;35.31;48.18;101101.25;5033689;28;20431;-67
2022/06/21 05:55:33;;;;;;;22.20;14.53;;;;;;;34.94;49.28;101099.91;5033533;28;20495;-69
2022/06/21 05:58:18;;;;;;;22.87;13.23;;;;;;;34.74;50.01;101098.06;5033560;28;20427;-69
2022/06/21 06:00:51;;;;;;;25.27;15.93;;;;;;;34.96;49.66;101103.09;5033652;28;20438;-71
2022/06/21 06:03:29;;;;;;;24.70;15.13;;;;;;;34.96;49.40;101106.59;5033512;28;21021;-71
2022/06/21 06:05:56;;;;;;;26.53;15.20;;;;;;;35.11;48.93;101111.09;5033352;28;20449;-73
2022/06/21 06:08:31;;;;;;;20.13;12.07;;;;;;;35.19;48.50;101098.91;5032679;28;20459;-71
2022/06/21 06:11:01;;;;;;;26.83;13.90;;;;;;;35.13;49.00;101094.63;5031171;28;20505;-73
2022/06/21 06:13:33;;;;;;;26.50;15.27;;;;;;;34.99;49.33;101097.97;5033104;28;20450;-73
2022/06/21 06:16:05;;;;;;;23.30;14.97;;;;;;;35.14;49.28;101088.16;5033308;28;20420;-72
2022/06/21 06:18:43;;;;;;;32.07;13.67;;;;;;;35.01;49.33;101084.22;5032575;28;20990;-74
2022/06/21 06:21:35;;;;;;;32.33;16.87;;;;;;;34.97;49.68;101086.66;5032943;28;20521;-73
2022/06/21 06:24:29;;;;;;;23.07;15.07;;;;;;;35.25;48.98;101097.78;5032759;28;20997;-71
2022/06/21 06:26:59;;;;;;;23.40;13.70;;;;;;;35.43;48.21;101105.22;5032290;28;20565;-72
2022/06/21 06:29:34;;;;;;;18.83;14.13;;;;;;;35.18;48.92;101094.59;5033033;28;20440;-71
2022/06/21 06:32:16;;;;;;;26.87;15.80;;;;;;;35.20;48.52;101100.50;5032636;28;20430;-71
2022/06/21 06:34:46;;;;;;;17.40;12.40;;;;;;;35.38;48.64;101112.53;5032128;28;21012;-72
2022/06/21 06:37:36;;;;;;;24.77;13.70;;;;;;;35.62;48.21;101116.13;5032778;28;20872;-71
2022/06/21 06:40:10;;;;;;;24.60;16.73;;;;;;;35.66;48.21;101113.63;5032827;28;20450;-71
2022/06/21 06:42:39;;;;;;;23.60;16.93;;;;;;;35.80;47.63;101111.91;5031704;28;20863;-71
2022/06/21 06:45:24;;;;;;;22.73;14.17;;;;;;;35.55;47.67;101114.84;5031338;28;20850;-71
2022/06/21 06:48:03;;;;;;;18.00;14.90;;;;;;;35.11;48.85;101113.81;5015258;28;20423;-72
2022/06/21 06:50:37;;;;;;;22.93;14.37;;;;;;;35.18;48.41;101122.38;5030919;28;20459;-71
2022/06/21 06:53:27;;;;;;;24.33;14.40;;;;;;;35.12;49.07;101120.81;5031923;28;20399;-71
2022/06/21 06:56:01;;;;;;;22.40;17.20;;;;;;;35.28;48.29;101127.69;5030810;28;20427;-70
2022/06/21 06:58:40;;;;;;;20.60;14.83;;;;;;;35.49;48.45;101125.66;5032356;28;20985;-69
2022/06/21 07:01:13;;;;;;;19.33;14.87;;;;;;;35.60;48.19;101141.75;5032183;28;20510;-68
2022/06/21 07:03:47;;;;;;;35.63;16.30;;;;;;;35.61;47.52;101133.41;5015940;28;20513;-71
2022/06/21 07:06:20;;;;;;;31.53;18.20;;;;;;;35.84;47.30;101131.00;5031876;28;20439;-77
2022/06/21 07:09:08;;;;;;;28.60;15.67;;;;;;;35.98;46.93;101132.78;5033800;28;20919;-76
2022/06/21 07:11:43;;;;;;;30.83;15.87;;;;;;;36.14;46.96;101127.22;5033077;28;20509;-73
2022/06/21 07:14:35;;;;;;;30.43;14.47;;;;;;;36.11;46.55;101125.09;5032317;28;20418;-78
2022/06/21 07:17:18;;;;;;;29.37;16.97;;;;;;;36.12;46.23;101116.72;5028467;28;20423;-68
2022/06/21 07:19:45;;;;;;;19.43;11.10;;;;;;;36.16;46.05;101123.16;5015892;28;20460;-71
2022/06/21 07:22:16;;;;;;;23.83;13.50;;;;;;;36.01;46.89;101126.00;5031665;28;20785;-75
2022/06/21 07:24:56;;;;;;;24.57;12.90;;;;;;;36.08;46.73;101126.47;5032477;28;20436;-71
2022/06/21 07:27:26;;;;;;;23.03;12.73;;;;;;;36.11;46.87;101135.91;5038790;28;20503;-69
2022/06/21 07:29:56;;;;;;;18.53;11.17;;;;;;;35.99;47.10;101155.19;5029274;28;20455;-70
2022/06/21 07:32:28;;;;;;;28.10;12.40;;;;;;;35.95;47.46;101157.66;5032046;28;20430;-71
2022/06/21 07:35:01;;;;;;;18.77;11.10;;;;;;;36.04;46.74;101158.66;5035626;28;20416;-69
2022/06/21 07:37:59;;;;;;;16.63;10.80;;;;;;;36.04;47.30;101157.84;5029594;28;20443;-71
2022/06/21 07:40:45;;;;;;;16.00;9.70;;;;;;;35.94;47.48;101155.25;5043124;28;20428;-70
2022/06/21 07:43:33;;;;;;;14.87;12.23;;;;;;;36.02;47.56;101152.72;5029026;28;20447;-70
2022/06/21 07:46:05;;;;;;;20.60;11.00;;;;;;;36.14;46.65;101160.44;5038329;28;20427;-76
2022/06/21 07:48:46;;;;;;;24.27;14.13;;;;;;;35.93;47.43;101165.25;5030239;28;20412;-76
2022/06/21 07:51:15;;;;;;;20.67;12.27;;;;;;;35.83;48.12;101168.00;5025903;28;20515;-73
2022/06/21 07:53:51;;;;;;;26.53;11.70;;;;;;;35.93;47.55;101173.34;5030902;28;20434;-73
2022/06/21 07:56:20;;;;;;;20.33;11.70;;;;;;;35.81;47.83;101180.97;5042477;28;20486;-76
2022/06/21 07:58:57;;;;;;;14.10;10.60;;;;;;;35.78;48.03;101192.31;5015547;28;20439;-74
2022/06/21 08:07:23;;;;;;;15.97;10.70;;;;;;;35.82;48.01;101222.28;5032294;28;20419;-70
2022/06/21 08:09:52;;;;;;;14.60;10.70;;;;;;;35.85;48.02;101219.00;5031066;28;20478;-73
2022/06/21 08:12:19;;;;;;;15.70;10.67;;;;;;;36.15;46.82;101216.03;5031346;28;20475;-73
2022/06/21 08:14:45;;;;;;;21.40;11.60;;;;;;;35.91;47.80;101213.31;5031282;28;20423;-74
2022/06/21 08:17:14;;;;;;;14.77;10.60;;;;;;;35.99;47.46;101214.59;5031311;28;20981;-73
2022/06/21 08:20:25;;;;;;;15.57;9.67;;;;;;;35.91;47.72;101213.31;5027688;28;20839;-78
2022/06/21 08:23:10;;;;;;;19.73;10.67;;;;;;;35.86;47.52;101234.94;5011034;28;20474;-79
2022/06/21 08:26:01;;;;;;;18.27;11.00;;;;;;;35.88;47.93;101234.63;5028799;28;20404;-72
2022/06/21 08:28:49;;;;;;;32.63;15.80;;;;;;;35.78;48.17;101238.22;5029255;28;20406;-73
2022/06/21 08:31:31;;;;;;;23.43;12.60;;;;;;;35.94;48.10;101245.13;5028662;28;20416;-71
2022/06/21 08:34:08;;;;;;;27.90;14.57;;;;;;;35.92;47.85;101250.03;5032273;28;20446;-69
2022/06/21 08:36:41;;;;;;;22.80;10.67;;;;;;;35.78;47.82;101257.91;5031341;28;21145;-69
2022/06/21 08:39:30;;;;;;;16.83;11.00;;;;;;;36.13;47.83;101263.34;5032014;28;20388;-72
2022/06/21 08:42:11;;;;;;;17.27;11.40;;;;;;;35.89;47.62;101268.63;5030321;28;20463;-70
2022/06/21 08:44:46;;;;;;;15.20;10.47;;;;;;;36.03;47.42;101270.47;5031408;28;20418;-69
2022/06/21 08:47:24;;;;;;;16.50;11.67;;;;;;;35.97;47.36;101276.16;5029615;28;20486;-69
2022/06/21 08:50:09;;;;;;;20.60;12.67;;;;;;;36.18;46.91;101277.59;5009997;28;20993;-71
2022/06/21 08:53:05;;;;;;;22.83;12.80;;;;;;;36.50;46.79;101278.94;5010760;28;20478;-70
2022/06/21 08:55:49;;;;;;;33.03;14.47;;;;;;;36.06;47.23;101288.78;5010638;28;21027;-69
2022/06/21 08:58:33;;;;;;;16.17;10.73;;;;;;;36.22;47.20;101300.28;5010843;28;20472;-71
2022/06/21 09:01:04;;;;;;;21.40;11.57;;;;;;;36.49;46.28;101297.06;5011423;28;20470;-71
2022/06/21 09:03:55;;;;;;;20.53;12.57;;;;;;;36.52;46.87;101301.91;5011272;28;20853;-69
2022/06/21 09:06:27;;;;;;;28.83;12.00;;;;;;;36.59;46.26;101298.88;5011023;28;20428;-71
2022/06/21 09:09:10;;;;;;;20.53;10.43;;;;;;;36.65;46.16;101307.69;5012772;28;20459;-71
2022/06/21 09:11:55;;;;;;;17.70;10.63;;;;;;;36.57;46.87;101299.13;5011219;28;20531;-70
2022/06/21 09:14:35;;;;;;;24.30;12.00;;;;;;;36.55;46.83;101298.63;5010863;28;20428;-71
2022/06/21 09:17:12;;;;;;;22.90;13.67;;;;;;;36.40;47.24;101306.91;5012949;28;20474;-73
2022/06/21 09:19:59;;;;;;;24.43;12.20;;;;;;;36.54;46.53;101307.03;5010935;28;20472;-70
2022/06/21 09:22:33;;;;;;;25.57;11.60;;;;;;;36.55;46.57;101305.94;5011036;28;20942;-70
2022/06/21 09:25:11;;;;;;;22.07;12.67;;;;;;;36.60;46.96;101292.38;5011212;28;20882;-71
2022/06/21 09:27:52;;;;;;;16.17;11.90;;;;;;;36.01;47.72;101296.91;5012748;28;20400;-69
2022/06/21 09:30:37;;;;;;;27.30;13.30;;;;;;;36.01;48.05;101294.22;5010956;28;20462;-69
2022/06/21 09:33:13;;;;;;;20.80;12.83;;;;;;;36.36;47.51;101299.59;5012636;28;20405;-71
2022/06/21 09:35:58;;;;;;;22.13;12.67;;;;;;;36.31;47.23;101298.56;5011099;28;20446;-69
2022/06/21 09:38:35;;;;;;;19.00;11.20;;;;;;;36.42;47.21;101296.59;5010999;28;20448;-69
2022/06/21 09:41:07;;;;;;;19.83;10.27;;;;;;;36.25;47.18;101301.59;5010972;28;20417;-70
2022/06/21 09:43:54;;;;;;;20.10;11.23;;;;;;;36.18;47.90;101311.91;5011117;28;20495;-70
2022/06/21 09:46:52;;;;;;;17.77;12.30;;;;;;;36.33;47.64;101320.66;5010964;28;20444;-70
2022/06/21 09:49:53;;;;;;;25.20;15.30;;;;;;;36.32;47.30;101329.06;5010797;28;20881;-70
2022/06/21 09:52:31;;;;;;;18.00;11.90;;;;;;;36.55;46.98;101319.44;4990515;28;20778;-69
2022/06/21 09:55:12;;;;;;;21.33;11.90;;;;;;;36.64;46.50;101311.50;5014515;28;20450;-71
2022/06/21 09:58:02;;;;;;;22.13;10.10;;;;;;;36.73;46.17;101304.38;5015831;28;20418;-71
2022/06/21 10:00:43;;;;;;;13.27;8.33;;;;;;;36.48;47.18;101305.47;5014053;28;20412;-70
2022/06/21 10:03:31;;;;;;;27.13;10.00;;;;;;;36.48;46.88;101298.16;5013740;28;20507;-70
2022/06/21 10:06:08;;;;;;;22.03;11.07;;;;;;;36.70;46.66;101305.75;5013648;28;20991;-69
2022/06/21 10:09:06;;;;;;;19.23;11.10;;;;;;;36.87;46.40;101313.44;5013614;28;20512;-69
2022/06/21 10:11:42;;;;;;;22.60;10.17;;;;;;;36.78;46.29;101324.06;5013296;28;20460;-71
2022/06/21 10:14:19;;;;;;;19.47;11.23;;;;;;;36.76;45.88;101326.22;5013542;28;20420;-71
2022/06/21 10:17:11;;;;;;;24.77;12.13;;;;;;;36.90;45.86;101321.00;5013281;28;20447;-71
2022/06/21 10:19:49;;;;;;;21.30;13.07;;;;;;;36.81;45.98;101314.56;5014558;28;20468;-71
2022/06/21 10:22:35;;;;;;;21.40;11.50;;;;;;;36.80;46.56;101315.66;5013248;28;20452;-71
2022/06/21 10:25:25;;;;;;;13.77;9.80;;;;;;;36.94;46.17;101316.59;5013281;28;20416;-71
2022/06/21 10:28:03;;;;;;;19.47;11.93;;;;;;;36.98;45.81;101314.94;5013178;28;20467;-71
2022/06/21 10:30:56;;;;;;;19.93;11.80;;;;;;;37.06;46.11;101319.69;5012979;28;20456;-70
2022/06/21 10:33:54;;;;;;;15.13;10.00;;;;;;;37.02;45.60;101320.59;5013218;28;20412;-70
2022/06/21 10:36:46;;;;;;;23.13;9.50;;;;;;;37.19;45.72;101317.38;4994600;28;20811;-70
2022/06/21 10:39:21;;;;;;;18.57;10.20;;;;;;;37.14;45.08;101310.16;5006769;28;20408;-70
2022/06/21 10:45:32;;;;;;;19.73;13.13;;;;;;;37.12;46.21;101304.22;4992544;28;20457;-70
2022/06/21 10:48:23;;;;;;;19.60;11.50;;;;;;;37.12;46.54;101288.78;5029415;28;20413;-70
2022/06/21 10:50:55;;;;;;;22.33;13.97;;;;;;;37.18;46.48;101297.66;5014104;28;20502;-71
2022/06/21 10:53:39;;;;;;;24.90;15.07;;;;;;;37.18;46.60;101296.84;5012762;28;20470;-71
2022/06/21 11:02:51;;;;;;;17.87;12.60;;;;;;;37.06;45.58;101287.25;4994679;28;20835;-71
2022/06/21 11:05:23;;;;;;;22.20;11.10;;;;;;;37.04;45.65;101289.44;5012557;28;20505;-71
2022/06/21 11:08:32;;;;;;;22.33;12.47;;;;;;;37.03;46.26;101292.44;5012453;28;20412;-71
2022/06/21 11:11:04;;;;;;;21.33;11.90;;;;;;;37.02;45.86;101282.72;5013555;28;20480;-71
2022/06/21 11:13:40;;;;;;;15.17;9.80;;;;;;;37.14;45.74;101272.28;5013730;28;20427;-71
2022/06/21 11:16:43;;;;;;;20.57;11.73;;;;;;;36.96;45.88;101265.75;5013587;28;20444;-71
2022/06/21 11:19:30;;;;;;;23.00;11.97;;;;;;;37.19;45.64;101263.28;5006561;28;20940;-72
2022/06/21 11:22:05;;;;;;;17.13;12.00;;;;;;;37.16;46.10;101258.47;5011995;28;20525;-71
2022/06/21 11:24:50;;;;;;;20.33;9.63;;;;;;;36.86;46.31;101258.53;5013613;28;20415;-71
2022/06/21 11:27:39;;;;;;;17.77;9.27;;;;;;;37.16;45.47;101242.25;5012215;28;20432;-71
2022/06/21 11:30:27;;;;;;;16.97;9.97;;;;;;;36.97;45.88;101226.81;5011997;28;20874;-71
2022/06/21 11:33:14;;;;;;;18.23;9.63;;;;;;;36.86;46.06;101225.28;5012008;28;20776;-70
2022/06/21 11:35:40;;;;;;;14.57;11.43;;;;;;;36.92;45.79;101220.66;5011919;28;20443;-69
2022/06/21 11:38:32;;;;;;;17.43;9.33;;;;;;;36.97;46.18;101224.09;5011859;28;20479;-70
2022/06/21 11:44:26;;;;;;;16.13;9.00;;;;;;;37.22;45.51;101222.13;5013088;28;20404;-70
2022/06/21 11:47:01;;;;;;;23.20;12.57;;;;;;;37.27;44.75;101220.16;5011643;28;20454;-70
2022/06/21 11:49:53;;;;;;;16.60;9.50;;;;;;;37.42;44.76;101211.03;5012000;28;20467;-70
2022/06/21 11:52:37;;;;;;;13.20;8.77;;;;;;;37.38;44.99;101199.19;5011504;28;20428;-71
2022/06/21 11:55:30;;;;;;;13.57;7.97;;;;;;;37.31;45.52;101202.22;5011667;28;20812;-71
2022/06/21 11:58:16;;;;;;;19.37;9.30;;;;;;;37.26;45.14;101209.63;5011645;28;20440;-72
2022/06/21 12:01:17;;;;;;;12.03;8.47;;;;;;;37.31;45.29;101218.47;5011641;28;20940;-70
2022/06/21 12:03:43;;;;;;;16.73;9.00;;;;;;;37.46;45.12;101232.91;5011469;28;20428;-70
2022/06/21 12:06:31;;;;;;;13.60;7.33;;;;;;;37.44;44.42;101233.19;5011536;28;20432;-70
2022/06/21 12:09:24;;;;;;;14.03;7.90;;;;;;;37.35;44.87;101233.06;5011278;28;20460;-69
2022/06/21 12:12:15;;;;;;;14.60;7.83;;;;;;;37.36;44.25;101223.03;5006169;28;20800;-71
2022/06/21 12:15:03;;;;;;;15.60;8.23;;;;;;;37.24;44.73;101218.03;5010087;28;20551;-70
2022/06/21 12:17:57;;;;;;;25.33;10.57;;;;;;;37.07;45.25;101231.25;5011658;28;20401;-71
2022/06/21 12:20:29;;;;;;;15.40;7.87;;;;;;;37.34;44.33;101227.94;5011014;28;20465;-72
2022/06/21 12:23:18;;;;;;;13.80;8.57;;;;;;;37.21;44.71;101221.34;5011640;28;20435;-72
2022/06/21 12:25:46;;;;;;;20.13;10.43;;;;;;;37.44;44.22;101232.38;5011724;28;20456;-71